Time;durP1;ratioP1;P1;durP2;ratioP2;P2;SDS_P1;SDS_P2;PMS_P1;PMS_P2;Temp;Humidity;BMP_temperature;BMP_pressure;BME280_temperature;BME280_humidity;BME280_pressure;Samples;Min_cycle;Max_cycle;Signal;HPM_P1;HPM_P2
2021/03/05 00:00:58;;;;;;;14.70;11.57;;;;;;;;;;2080448;28;20184;-56
2021/03/05 00:01:58;;;;;;;13.83;11.67;;;;;;;;;;2080755;28;20222;-60
2021/03/05 00:02:59;;;;;;;11.93;10.63;;;;;;;;;;2080596;28;20180;-57
2021/03/05 00:03:59;;;;;;;15.33;11.77;;;;;;;;;;2084189;28;20200;-62
2021/03/05 00:05:00;;;;;;;12.40;11.10;;;;;;;;;;2085162;28;20238;-58
2021/03/05 00:06:00;;;;;;;13.07;11.70;;;;;;;;;;2081184;28;20191;-59
2021/03/05 00:07:01;;;;;;;14.27;11.13;;;;;;;;;;2081009;28;20787;-60
2021/03/05 00:08:01;;;;;;;13.20;11.23;;;;;;;;;;2087390;28;20578;-58
2021/03/05 00:09:02;;;;;;;12.63;11.40;;;;;;;;;;2081070;28;20212;-59
2021/03/05 00:10:06;;;;;;;12.60;11.27;;;;;;;;;;2081728;28;20168;-58
2021/03/05 00:11:07;;;;;;;12.20;11.00;;;;;;;;;;2081329;28;20176;-59
2021/03/05 00:12:10;;;;;;;14.77;11.90;;;;;;;;;;2081571;28;20203;-56
2021/03/05 00:13:11;;;;;;;13.43;10.67;;;;;;;;;;2082982;28;20209;-56
2021/03/05 00:14:11;;;;;;;12.43;11.23;;;;;;;;;;2084795;28;20611;-55
2021/03/05 00:15:12;;;;;;;9.90;9.00;;;;;;;;;;2081106;28;20200;-60
2021/03/05 00:16:12;;;;;;;10.60;9.60;;;;;;;;;;2081262;28;20310;-61
2021/03/05 00:17:12;;;;;;;10.17;9.17;;;;;;;;;;2082397;28;20290;-61
2021/03/05 00:18:13;;;;;;;9.30;8.40;;;;;;;;;;2077403;28;20184;-57
2021/03/05 00:19:13;;;;;;;8.90;8.10;;;;;;;;;;2084269;28;20203;-58
2021/03/05 00:20:14;;;;;;;8.27;7.47;;;;;;;;;;2081615;28;20174;-57
2021/03/05 00:21:15;;;;;;;8.47;7.67;;;;;;;;;;2082150;28;20172;-57
2021/03/05 00:22:15;;;;;;;6.80;6.20;;;;;;;;;;2074756;28;20181;-59
2021/03/05 00:23:16;;;;;;;7.67;6.97;;;;;;;;;;2076122;28;20184;-60
2021/03/05 00:24:16;;;;;;;7.20;6.40;;;;;;;;;;2082397;28;20171;-58
2021/03/05 00:25:16;;;;;;;7.33;6.20;;;;;;;;;;2086729;28;20200;-57
2021/03/05 00:26:16;;;;;;;6.10;5.57;;;;;;;;;;2085568;28;20176;-60
2021/03/05 00:27:17;;;;;;;6.23;5.73;;;;;;;;;;2080605;28;20192;-59
2021/03/05 00:28:17;;;;;;;6.07;5.47;;;;;;;;;;2081170;28;20227;-61
2021/03/05 00:29:18;;;;;;;9.03;5.60;;;;;;;;;;2081123;28;20165;-57
2021/03/05 00:30:18;;;;;;;5.83;5.23;;;;;;;;;;2082889;28;20246;-59
2021/03/05 00:31:19;;;;;;;5.30;4.80;;;;;;;;;;2081347;28;20207;-59
2021/03/05 00:32:19;;;;;;;5.13;4.73;;;;;;;;;;2085794;28;20521;-58
2021/03/05 00:33:19;;;;;;;4.73;4.43;;;;;;;;;;2081760;28;20664;-59
2021/03/05 00:34:19;;;;;;;4.60;4.20;;;;;;;;;;2081872;28;20157;-59
2021/03/05 00:35:20;;;;;;;5.40;4.37;;;;;;;;;;2085154;28;20559;-55
2021/03/05 00:36:21;;;;;;;4.87;3.63;;;;;;;;;;2079168;28;20199;-55
2021/03/05 00:37:21;;;;;;;5.03;3.83;;;;;;;;;;2080748;28;20175;-56
2021/03/05 00:38:22;;;;;;;3.67;3.40;;;;;;;;;;2082431;28;20694;-59
2021/03/05 00:39:22;;;;;;;4.93;3.80;;;;;;;;;;2082859;28;20200;-56
2021/03/05 00:40:23;;;;;;;6.03;4.03;;;;;;;;;;2082425;28;20298;-58
2021/03/05 00:41:23;;;;;;;4.60;4.30;;;;;;;;;;2081222;28;20195;-59
2021/03/05 00:42:24;;;;;;;3.60;3.40;;;;;;;;;;2081547;28;20168;-60
2021/03/05 00:43:24;;;;;;;3.70;3.40;;;;;;;;;;2080385;28;20172;-57
2021/03/05 00:44:24;;;;;;;6.27;3.67;;;;;;;;;;2084284;28;20176;-58
2021/03/05 00:45:25;;;;;;;5.33;3.97;;;;;;;;;;2082203;28;20228;-59
2021/03/05 00:46:26;;;;;;;3.63;3.30;;;;;;;;;;2070210;28;20263;-60
2021/03/05 00:47:26;;;;;;;3.50;3.30;;;;;;;;;;2079759;28;20432;-59
2021/03/05 00:48:26;;;;;;;3.83;3.20;;;;;;;;;;2079190;28;20204;-54
2021/03/05 00:49:27;;;;;;;3.67;3.20;;;;;;;;;;2074775;28;20177;-61
2021/03/05 00:50:27;;;;;;;3.13;2.93;;;;;;;;;;2072229;28;20162;-59
2021/03/05 00:51:27;;;;;;;4.03;3.60;;;;;;;;;;2079518;28;20181;-57
2021/03/05 00:52:28;;;;;;;3.30;3.10;;;;;;;;;;2079630;28;20180;-56
2021/03/05 00:53:28;;;;;;;6.17;3.37;;;;;;;;;;2077232;28;20259;-58
2021/03/05 00:54:28;;;;;;;3.27;2.90;;;;;;;;;;2082145;28;20691;-59
2021/03/05 00:55:30;;;;;;;3.43;3.23;;;;;;;;;;2077452;28;20192;-57
2021/03/05 00:56:37;;;;;;;3.53;3.23;;;;;;;;;;2081365;28;20706;-58
2021/03/05 00:57:38;;;;;;;5.03;3.20;;;;;;;;;;2081325;28;20176;-60
2021/03/05 00:58:38;;;;;;;3.83;3.50;;;;;;;;;;2073431;28;20267;-59
2021/03/05 00:59:42;;;;;;;3.00;2.80;;;;;;;;;;2081769;28;20199;-58
2021/03/05 01:00:42;;;;;;;3.30;3.07;;;;;;;;;;2079735;28;20204;-59
2021/03/05 01:01:45;;;;;;;3.73;2.87;;;;;;;;;;2079074;28;20724;-59
2021/03/05 01:02:46;;;;;;;3.20;3.00;;;;;;;;;;2077467;28;20237;-61
2021/03/05 01:03:47;;;;;;;3.43;3.10;;;;;;;;;;2078042;28;20191;-53
2021/03/05 01:04:49;;;;;;;3.20;2.90;;;;;;;;;;2080961;28;20206;-55
2021/03/05 01:05:50;;;;;;;3.07;2.87;;;;;;;;;;2076052;28;20181;-52
2021/03/05 01:06:50;;;;;;;3.23;2.87;;;;;;;;;;2075291;28;20610;-55
2021/03/05 01:07:54;;;;;;;3.47;3.03;;;;;;;;;;2080565;28;20208;-49
2021/03/05 01:09:04;;;;;;;6.87;3.37;;;;;;;;;;2067034;28;20300;-53
2021/03/05 01:10:06;;;;;;;3.67;3.03;;;;;;;;;;2083816;28;20191;-55
2021/03/05 01:11:07;;;;;;;5.47;4.13;;;;;;;;;;2081841;28;20221;-53
2021/03/05 01:12:07;;;;;;;5.13;4.60;;;;;;;;;;2080825;28;20222;-56
2021/03/05 01:13:08;;;;;;;4.60;3.13;;;;;;;;;;2081341;28;20238;-54
2021/03/05 01:14:08;;;;;;;4.27;3.87;;;;;;;;;;2081711;28;20201;-55
2021/03/05 01:15:09;;;;;;;4.60;3.10;;;;;;;;;;2083922;28;20699;-52
2021/03/05 01:16:09;;;;;;;3.30;3.00;;;;;;;;;;2081376;28;20584;-56
2021/03/05 01:17:09;;;;;;;3.77;2.87;;;;;;;;;;2080848;28;20176;-55
2021/03/05 01:18:09;;;;;;;3.73;2.60;;;;;;;;;;2081633;28;20208;-55
2021/03/05 01:19:10;;;;;;;3.63;3.33;;;;;;;;;;2080163;28;20684;-50
2021/03/05 01:20:13;;;;;;;2.90;2.70;;;;;;;;;;2080389;28;20181;-53
2021/03/05 01:21:13;;;;;;;3.10;2.80;;;;;;;;;;2081665;28;20418;-51
2021/03/05 01:22:14;;;;;;;3.57;3.37;;;;;;;;;;2080798;28;20437;-53
2021/03/05 01:23:15;;;;;;;2.60;2.40;;;;;;;;;;2079610;28;20575;-57
2021/03/05 01:24:16;;;;;;;4.30;3.10;;;;;;;;;;2080484;28;20168;-54
2021/03/05 01:25:18;;;;;;;2.90;2.70;;;;;;;;;;2081895;28;20187;-56
2021/03/05 01:26:19;;;;;;;3.93;2.77;;;;;;;;;;2080932;28;20275;-54
2021/03/05 01:27:19;;;;;;;4.20;3.33;;;;;;;;;;2080636;28;20417;-55
2021/03/05 01:28:19;;;;;;;3.83;2.80;;;;;;;;;;2086197;28;20226;-53
2021/03/05 01:29:19;;;;;;;4.10;2.80;;;;;;;;;;2076961;28;20561;-55
2021/03/05 01:30:20;;;;;;;3.37;3.07;;;;;;;;;;2073450;28;20176;-55
2021/03/05 01:31:20;;;;;;;4.40;3.07;;;;;;;;;;2071668;28;20622;-53
2021/03/05 01:32:20;;;;;;;3.10;2.80;;;;;;;;;;2080927;28;20165;-56
2021/03/05 01:33:21;;;;;;;3.93;3.20;;;;;;;;;;2081193;28;20172;-56
2021/03/05 01:34:21;;;;;;;3.03;2.70;;;;;;;;;;2072733;28;20545;-56
2021/03/05 01:35:23;;;;;;;2.40;2.30;;;;;;;;;;2076066;28;20287;-54
2021/03/05 01:36:23;;;;;;;3.53;2.83;;;;;;;;;;2072638;28;20164;-54
2021/03/05 01:37:23;;;;;;;3.77;2.70;;;;;;;;;;2075662;28;20428;-57
2021/03/05 01:38:23;;;;;;;3.43;3.13;;;;;;;;;;2079114;28;20180;-55
2021/03/05 01:39:24;;;;;;;3.27;2.67;;;;;;;;;;2075777;28;20168;-55
2021/03/05 01:40:33;;;;;;;3.47;3.27;;;;;;;;;;2085304;28;20168;-52
2021/03/05 01:41:34;;;;;;;2.93;2.73;;;;;;;;;;2079463;28;20172;-55
2021/03/05 01:42:34;;;;;;;2.73;2.53;;;;;;;;;;2073508;28;20547;-53
2021/03/05 01:43:37;;;;;;;3.43;3.10;;;;;;;;;;2073851;28;20268;-54
2021/03/05 01:44:37;;;;;;;2.90;2.70;;;;;;;;;;2082773;28;20184;-56
2021/03/05 01:45:38;;;;;;;7.27;3.20;;;;;;;;;;2083479;28;20417;-53
2021/03/05 01:46:38;;;;;;;3.50;3.20;;;;;;;;;;2081615;28;20172;-54
2021/03/05 01:47:39;;;;;;;3.40;2.50;;;;;;;;;;2082428;28;20655;-53
2021/03/05 01:48:40;;;;;;;2.90;2.70;;;;;;;;;;2082809;28;20273;-55
2021/03/05 01:49:40;;;;;;;4.90;3.33;;;;;;;;;;2084995;28;20614;-54
2021/03/05 01:50:46;;;;;;;3.47;3.17;;;;;;;;;;2091770;28;20412;-54
2021/03/05 01:51:46;;;;;;;3.00;2.70;;;;;;;;;;2090356;28;20213;-54
2021/03/05 01:52:48;;;;;;;3.00;2.70;;;;;;;;;;2090916;28;20400;-55
2021/03/05 01:53:49;;;;;;;3.27;3.00;;;;;;;;;;2090695;28;20270;-55
2021/03/05 01:54:49;;;;;;;3.13;2.77;;;;;;;;;;2090851;28;20488;-54
2021/03/05 01:55:49;;;;;;;3.33;2.80;;;;;;;;;;2091079;28;20624;-55
2021/03/05 01:56:50;;;;;;;3.27;2.80;;;;;;;;;;2091206;28;20185;-55
2021/03/05 01:57:51;;;;;;;4.60;3.13;;;;;;;;;;2089965;28;20751;-55
2021/03/05 01:58:51;;;;;;;2.93;2.70;;;;;;;;;;2081305;28;20409;-52
2021/03/05 01:59:51;;;;;;;2.70;2.60;;;;;;;;;;2089157;28;20556;-52
2021/03/05 02:00:53;;;;;;;2.70;2.50;;;;;;;;;;2090126;28;20184;-52
2021/03/05 02:01:56;;;;;;;3.63;2.97;;;;;;;;;;2089565;28;20195;-52
2021/03/05 02:02:56;;;;;;;4.00;2.73;;;;;;;;;;2090286;28;20606;-52
2021/03/05 02:03:57;;;;;;;3.17;2.90;;;;;;;;;;2085071;28;20437;-58
2021/03/05 02:04:57;;;;;;;4.27;2.60;;;;;;;;;;2081752;28;20278;-55
2021/03/05 02:05:57;;;;;;;4.63;2.90;;;;;;;;;;2087582;28;20171;-54
2021/03/05 02:06:58;;;;;;;3.30;3.10;;;;;;;;;;2089725;28;20179;-53
2021/03/05 02:07:59;;;;;;;4.67;2.90;;;;;;;;;;2089680;28;20189;-56
2021/03/05 02:09:00;;;;;;;3.10;2.73;;;;;;;;;;2089531;28;20199;-52
2021/03/05 02:10:01;;;;;;;4.37;2.60;;;;;;;;;;2089303;28;20417;-52
2021/03/05 02:11:01;;;;;;;2.60;2.40;;;;;;;;;;2089617;28;20167;-56
2021/03/05 02:12:02;;;;;;;4.30;3.23;;;;;;;;;;2089643;28;20168;-54
2021/03/05 02:13:03;;;;;;;3.30;2.57;;;;;;;;;;2079128;28;20169;-51
2021/03/05 02:14:08;;;;;;;2.57;2.47;;;;;;;;;;2081594;28;20410;-55
2021/03/05 02:15:08;;;;;;;2.70;2.60;;;;;;;;;;2082745;28;20207;-55
2021/03/05 02:16:13;;;;;;;3.40;2.60;;;;;;;;;;2089646;28;20412;-57
2021/03/05 02:17:16;;;;;;;3.10;2.60;;;;;;;;;;2079800;28;20575;-56
2021/03/05 02:18:16;;;;;;;2.93;2.60;;;;;;;;;;2085506;28;20587;-57
2021/03/05 02:19:17;;;;;;;4.33;3.00;;;;;;;;;;2080452;28;20438;-57
2021/03/05 02:20:17;;;;;;;2.83;2.63;;;;;;;;;;2085515;28;20176;-59
2021/03/05 02:21:34;;;;;;;3.23;2.93;;;;;;;;;;2081158;28;20250;-59
2021/03/05 02:22:53;;;;;;;2.90;2.70;;;;;;;;;;2087134;28;20252;-59
2021/03/05 02:24:00;;;;;;;2.57;2.37;;;;;;;;;;2080330;28;20477;-58
2021/03/05 02:25:09;;;;;;;4.87;2.77;;;;;;;;;;2079854;28;20462;-57
2021/03/05 02:26:18;;;;;;;3.10;2.80;;;;;;;;;;2087047;28;20428;-53
2021/03/05 02:27:37;;;;;;;2.30;2.20;;;;;;;;;;2076877;28;20967;-56
2021/03/05 02:28:56;;;;;;;2.73;2.63;;;;;;;;;;2082471;28;20452;-55
2021/03/05 02:30:02;;;;;;;2.73;2.53;;;;;;;;;;2082602;28;20465;-53
2021/03/05 02:31:12;;;;;;;2.90;2.67;;;;;;;;;;2086627;28;20424;-54
2021/03/05 02:32:18;;;;;;;3.97;2.43;;;;;;;;;;2084838;28;20825;-56
2021/03/05 02:33:33;;;;;;;3.50;3.30;;;;;;;;;;2082181;28;20417;-55
2021/03/05 02:34:36;;;;;;;3.43;3.13;;;;;;;;;;2082335;28;20879;-53
2021/03/05 02:35:36;;;;;;;3.27;2.57;;;;;;;;;;2086672;28;20436;-53
2021/03/05 02:36:40;;;;;;;2.93;2.67;;;;;;;;;;2083236;28;20835;-56
2021/03/05 02:37:41;;;;;;;5.73;2.90;;;;;;;;;;2081897;28;20172;-51
2021/03/05 02:38:46;;;;;;;4.67;2.97;;;;;;;;;;2079399;28;20504;-54
2021/03/05 02:39:59;;;;;;;4.67;2.40;;;;;;;;;;2087092;28;20935;-57
2021/03/05 02:41:00;;;;;;;3.20;2.50;;;;;;;;;;2074983;28;20804;-53
2021/03/05 02:42:02;;;;;;;3.67;2.80;;;;;;;;;;2083531;28;20429;-55
2021/03/05 02:43:04;;;;;;;3.03;2.77;;;;;;;;;;2076450;28;20181;-57
2021/03/05 02:44:06;;;;;;;4.37;2.67;;;;;;;;;;2080094;28;20998;-54
2021/03/05 02:45:08;;;;;;;2.63;2.40;;;;;;;;;;2081954;28;20444;-55
2021/03/05 02:46:10;;;;;;;2.97;2.67;;;;;;;;;;2088666;28;20440;-54
2021/03/05 02:47:13;;;;;;;3.83;2.70;;;;;;;;;;2082607;28;20512;-56
2021/03/05 02:48:16;;;;;;;7.00;2.50;;;;;;;;;;2073991;28;20418;-56
2021/03/05 02:49:19;;;;;;;4.97;3.00;;;;;;;;;;2081986;28;20484;-51
2021/03/05 02:50:20;;;;;;;3.20;2.67;;;;;;;;;;2079832;28;20516;-56
2021/03/05 02:51:21;;;;;;;3.10;2.47;;;;;;;;;;2082983;28;20531;-55
2021/03/05 02:52:22;;;;;;;4.33;2.60;;;;;;;;;;2085263;28;20417;-55
2021/03/05 02:53:24;;;;;;;4.53;2.50;;;;;;;;;;2086366;28;20421;-55
2021/03/05 02:54:25;;;;;;;3.40;2.50;;;;;;;;;;2082472;28;20226;-55
2021/03/05 02:55:26;;;;;;;2.70;2.50;;;;;;;;;;2081302;28;20443;-56
2021/03/05 02:56:28;;;;;;;2.90;2.70;;;;;;;;;;2082427;28;20510;-52
2021/03/05 02:57:34;;;;;;;2.67;2.30;;;;;;;;;;2082145;28;20592;-54
2021/03/05 02:58:34;;;;;;;5.50;2.80;;;;;;;;;;2079648;28;20429;-54
2021/03/05 02:59:39;;;;;;;2.77;2.57;;;;;;;;;;2086492;28;20429;-55
2021/03/05 03:00:40;;;;;;;3.33;3.07;;;;;;;;;;2085620;28;20238;-54
2021/03/05 03:01:47;;;;;;;3.40;3.10;;;;;;;;;;2082472;28;20890;-52
2021/03/05 03:02:48;;;;;;;5.00;2.83;;;;;;;;;;2081913;28;20424;-58
2021/03/05 03:03:49;;;;;;;3.23;2.97;;;;;;;;;;2080533;28;20417;-58
2021/03/05 03:04:49;;;;;;;2.60;2.40;;;;;;;;;;2077701;28;20283;-53
2021/03/05 03:05:50;;;;;;;4.83;2.73;;;;;;;;;;2075144;28;20188;-52
2021/03/05 03:06:51;;;;;;;6.67;3.53;;;;;;;;;;2073517;28;20185;-54
2021/03/05 03:07:51;;;;;;;5.67;3.23;;;;;;;;;;2073951;28;20193;-54
2021/03/05 03:08:52;;;;;;;4.37;2.87;;;;;;;;;;2083204;28;20577;-54
2021/03/05 03:09:53;;;;;;;3.70;3.10;;;;;;;;;;2086043;28;20167;-55
2021/03/05 03:10:53;;;;;;;4.33;3.60;;;;;;;;;;2091289;28;20817;-54
2021/03/05 03:11:54;;;;;;;4.90;4.33;;;;;;;;;;2077572;28;20177;-52
2021/03/05 03:12:55;;;;;;;5.40;4.23;;;;;;;;;;2077417;28;20185;-53
2021/03/05 03:13:55;;;;;;;3.60;3.30;;;;;;;;;;2082184;28;20561;-52
2021/03/05 03:14:56;;;;;;;4.93;3.17;;;;;;;;;;2086637;28;20507;-52
2021/03/05 03:15:57;;;;;;;5.43;3.03;;;;;;;;;;2089853;28;20910;-53
2021/03/05 03:16:57;;;;;;;3.40;3.07;;;;;;;;;;2076675;28;20195;-55
2021/03/05 03:17:59;;;;;;;3.57;2.60;;;;;;;;;;2088785;28;20844;-52
2021/03/05 03:18:59;;;;;;;4.50;2.93;;;;;;;;;;2079501;28;20711;-54
2021/03/05 03:20:00;;;;;;;3.67;2.83;;;;;;;;;;2083909;28;20423;-53
2021/03/05 03:21:01;;;;;;;5.33;3.30;;;;;;;;;;2082530;28;20188;-53
2021/03/05 03:22:01;;;;;;;3.70;2.93;;;;;;;;;;2081601;28;20260;-52
2021/03/05 03:23:03;;;;;;;3.30;3.00;;;;;;;;;;2082280;28;20188;-55
2021/03/05 03:24:04;;;;;;;3.63;2.93;;;;;;;;;;2082205;28;20183;-56
2021/03/05 03:25:04;;;;;;;4.73;2.90;;;;;;;;;;2087415;28;20463;-51
2021/03/05 03:26:06;;;;;;;4.43;2.80;;;;;;;;;;2090646;28;20797;-53
2021/03/05 03:27:06;;;;;;;4.27;3.00;;;;;;;;;;2090984;28;20207;-53
2021/03/05 03:28:06;;;;;;;4.40;3.27;;;;;;;;;;2091061;28;20448;-52
2021/03/05 03:29:08;;;;;;;4.20;3.10;;;;;;;;;;2090548;28;20199;-53
2021/03/05 03:30:09;;;;;;;3.63;3.13;;;;;;;;;;2090078;28;20262;-57
2021/03/05 03:31:14;;;;;;;5.80;3.47;;;;;;;;;;2090827;28;20857;-54
2021/03/05 03:32:14;;;;;;;4.20;3.80;;;;;;;;;;2090550;28;20449;-53
2021/03/05 03:33:15;;;;;;;3.50;3.20;;;;;;;;;;2090930;28;20499;-52
2021/03/05 03:34:16;;;;;;;3.20;2.93;;;;;;;;;;2090411;28;20194;-53
2021/03/05 03:35:16;;;;;;;3.53;3.23;;;;;;;;;;2090229;28;20214;-56
2021/03/05 03:36:16;;;;;;;3.77;3.40;;;;;;;;;;2090711;28;20313;-54
2021/03/05 03:37:17;;;;;;;3.90;3.27;;;;;;;;;;2087857;28;20168;-54
2021/03/05 03:38:18;;;;;;;3.73;3.23;;;;;;;;;;2081786;28;20579;-52
2021/03/05 03:39:18;;;;;;;3.97;3.27;;;;;;;;;;2082747;28;20430;-55
2021/03/05 03:40:20;;;;;;;4.20;3.80;;;;;;;;;;2085866;28;20168;-55
2021/03/05 03:41:20;;;;;;;4.67;3.17;;;;;;;;;;2081671;28;20517;-51
2021/03/05 03:42:21;;;;;;;6.63;3.03;;;;;;;;;;2082482;28;20447;-55
2021/03/05 03:43:21;;;;;;;3.37;2.83;;;;;;;;;;2082018;28;20200;-55
2021/03/05 03:44:21;;;;;;;4.17;2.80;;;;;;;;;;2082105;28;20231;-55
2021/03/05 03:45:22;;;;;;;3.60;2.90;;;;;;;;;;2088525;28;20190;-55
2021/03/05 03:46:23;;;;;;;3.53;3.23;;;;;;;;;;2085546;28;20179;-55
2021/03/05 03:47:23;;;;;;;3.37;3.07;;;;;;;;;;2085760;28;20904;-55
2021/03/05 03:48:24;;;;;;;3.60;3.30;;;;;;;;;;2082861;28;20669;-54
2021/03/05 03:49:46;;;;;;;6.13;3.67;;;;;;;;;;2085970;28;20172;-53
2021/03/05 03:50:51;;;;;;;5.03;3.30;;;;;;;;;;2086954;28;20415;-52
2021/03/05 03:51:56;;;;;;;2.97;2.77;;;;;;;;;;2082234;28;20420;-52
2021/03/05 03:53:06;;;;;;;3.40;3.20;;;;;;;;;;2090105;28;20536;-52
2021/03/05 03:54:07;;;;;;;6.93;3.50;;;;;;;;;;2090984;28;20380;-57
2021/03/05 03:55:08;;;;;;;4.03;3.00;;;;;;;;;;2090296;28;20466;-52
2021/03/05 03:56:10;;;;;;;5.37;3.40;;;;;;;;;;2090781;28;20402;-51
2021/03/05 03:57:12;;;;;;;6.10;3.57;;;;;;;;;;2089819;28;20461;-54
2021/03/05 03:58:14;;;;;;;4.67;3.20;;;;;;;;;;2090102;28;20412;-55
2021/03/05 03:59:15;;;;;;;4.07;3.33;;;;;;;;;;2090391;28;20846;-53
2021/03/05 04:00:17;;;;;;;3.73;3.23;;;;;;;;;;2090566;28;20465;-56
2021/03/05 04:01:18;;;;;;;6.37;3.70;;;;;;;;;;2089753;28;20417;-50
2021/03/05 04:02:19;;;;;;;6.53;3.83;;;;;;;;;;2081618;28;20413;-54
2021/03/05 04:03:23;;;;;;;6.10;3.53;;;;;;;;;;2090042;28;20183;-55
2021/03/05 04:04:24;;;;;;;5.83;3.47;;;;;;;;;;2088432;28;20405;-52
2021/03/05 04:05:25;;;;;;;4.97;3.80;;;;;;;;;;2082051;28;20576;-52
2021/03/05 04:06:26;;;;;;;4.23;3.83;;;;;;;;;;2085550;28;20417;-53
2021/03/05 04:07:28;;;;;;;5.73;3.73;;;;;;;;;;2082124;28;20414;-54
2021/03/05 04:08:29;;;;;;;4.20;3.30;;;;;;;;;;2081136;28;20180;-53
2021/03/05 04:09:30;;;;;;;7.60;3.87;;;;;;;;;;2080943;28;20413;-54
2021/03/05 04:10:31;;;;;;;6.23;3.60;;;;;;;;;;2084542;28;20433;-55
2021/03/05 04:11:31;;;;;;;7.30;4.17;;;;;;;;;;2081191;28;20441;-52
2021/03/05 04:12:32;;;;;;;4.93;3.80;;;;;;;;;;2081655;28;20632;-54
2021/03/05 04:13:32;;;;;;;5.70;3.83;;;;;;;;;;2081569;28;20668;-55
2021/03/05 04:14:32;;;;;;;4.47;3.93;;;;;;;;;;2082118;28;20176;-55
2021/03/05 04:15:33;;;;;;;4.37;3.97;;;;;;;;;;2083729;28;20192;-56
2021/03/05 04:16:33;;;;;;;5.97;3.77;;;;;;;;;;2085595;28;20176;-55
2021/03/05 04:17:33;;;;;;;4.10;3.77;;;;;;;;;;2081100;28;20183;-54
2021/03/05 04:18:35;;;;;;;3.80;3.50;;;;;;;;;;2073195;28;20208;-53
2021/03/05 04:19:35;;;;;;;4.27;3.87;;;;;;;;;;2082373;28;20274;-55
2021/03/05 04:20:37;;;;;;;3.70;3.40;;;;;;;;;;2075725;28;20415;-57
2021/03/05 04:21:37;;;;;;;3.63;3.43;;;;;;;;;;2072476;28;20232;-55
2021/03/05 04:22:37;;;;;;;5.27;3.77;;;;;;;;;;2080361;28;20416;-53
2021/03/05 04:23:38;;;;;;;5.33;4.03;;;;;;;;;;2080422;28;20176;-54
2021/03/05 04:24:38;;;;;;;4.53;3.30;;;;;;;;;;2081443;28;20200;-56
2021/03/05 04:25:38;;;;;;;3.90;3.60;;;;;;;;;;2080981;28;20207;-54
2021/03/05 04:26:39;;;;;;;4.63;3.60;;;;;;;;;;2080857;28;20192;-55
2021/03/05 04:27:39;;;;;;;4.87;3.93;;;;;;;;;;2084893;28;20202;-52
2021/03/05 04:28:39;;;;;;;4.00;3.20;;;;;;;;;;2083949;28;20227;-59
2021/03/05 04:29:40;;;;;;;4.67;3.60;;;;;;;;;;2078872;28;20212;-55
2021/03/05 04:30:40;;;;;;;3.13;2.83;;;;;;;;;;2083075;28;20266;-54
2021/03/05 04:31:40;;;;;;;3.77;3.23;;;;;;;;;;2083300;28;20172;-53
2021/03/05 04:32:41;;;;;;;4.40;3.10;;;;;;;;;;2081148;28;20675;-56
2021/03/05 04:33:41;;;;;;;6.33;3.50;;;;;;;;;;2082159;28;20584;-54
2021/03/05 04:34:41;;;;;;;4.77;3.60;;;;;;;;;;2081214;28;20187;-51
2021/03/05 04:35:42;;;;;;;3.40;3.17;;;;;;;;;;2085950;28;20592;-57
2021/03/05 04:36:42;;;;;;;4.57;3.40;;;;;;;;;;2085345;28;20165;-55
2021/03/05 04:37:42;;;;;;;4.43;3.37;;;;;;;;;;2085386;28;20250;-58
2021/03/05 04:38:42;;;;;;;5.13;3.60;;;;;;;;;;2083041;28;20668;-55
2021/03/05 04:39:43;;;;;;;3.70;3.27;;;;;;;;;;2080341;28;20175;-54
2021/03/05 04:40:43;;;;;;;4.27;3.90;;;;;;;;;;2087350;28;20226;-53
2021/03/05 04:41:43;;;;;;;5.70;3.70;;;;;;;;;;2084344;28;20186;-55
2021/03/05 04:42:43;;;;;;;4.90;3.47;;;;;;;;;;2082739;28;20188;-54
2021/03/05 04:43:44;;;;;;;4.97;3.47;;;;;;;;;;2082305;28;20237;-52
2021/03/05 04:44:44;;;;;;;6.03;3.53;;;;;;;;;;2082661;28;20195;-52
2021/03/05 04:45:44;;;;;;;4.23;3.60;;;;;;;;;;2076684;28;20197;-53
2021/03/05 04:46:44;;;;;;;5.67;3.30;;;;;;;;;;2080196;28;20200;-57
2021/03/05 04:47:45;;;;;;;3.27;3.00;;;;;;;;;;2084739;28;20310;-56
2021/03/05 04:48:45;;;;;;;5.43;3.63;;;;;;;;;;2081026;28;20282;-54
2021/03/05 04:49:45;;;;;;;3.63;3.33;;;;;;;;;;2080622;28;20748;-54
2021/03/05 04:50:45;;;;;;;3.57;3.20;;;;;;;;;;2082593;28;20204;-53
2021/03/05 04:51:46;;;;;;;3.83;3.40;;;;;;;;;;2079578;28;20361;-52
2021/03/05 04:52:46;;;;;;;4.83;3.60;;;;;;;;;;2084198;28;20763;-54
2021/03/05 04:53:46;;;;;;;4.40;3.37;;;;;;;;;;2082396;28;20548;-53
2021/03/05 04:54:47;;;;;;;4.97;3.60;;;;;;;;;;2081735;28;20235;-58
2021/03/05 04:55:47;;;;;;;4.50;3.67;;;;;;;;;;2080755;28;20237;-58
2021/03/05 04:56:47;;;;;;;7.20;4.00;;;;;;;;;;2082038;28;20616;-51
2021/03/05 04:57:47;;;;;;;3.53;3.23;;;;;;;;;;2081976;28;20198;-56
2021/03/05 04:58:48;;;;;;;6.20;3.47;;;;;;;;;;2081194;28;20180;-52
2021/03/05 04:59:48;;;;;;;3.80;3.50;;;;;;;;;;2080430;28;20172;-53
2021/03/05 05:00:48;;;;;;;8.17;3.40;;;;;;;;;;2088177;28;20175;-53
2021/03/05 05:01:48;;;;;;;3.13;2.90;;;;;;;;;;2078736;28;20294;-55
2021/03/05 05:02:49;;;;;;;5.93;4.40;;;;;;;;;;2080056;28;20206;-54
2021/03/05 05:03:49;;;;;;;3.90;3.50;;;;;;;;;;2080932;28;20180;-53
2021/03/05 05:04:49;;;;;;;4.40;3.87;;;;;;;;;;2081272;28;20195;-55
2021/03/05 05:05:49;;;;;;;5.40;3.70;;;;;;;;;;2091445;22;20241;-57
2021/03/05 05:06:49;;;;;;;4.77;3.93;;;;;;;;;;2080698;28;20230;-57
2021/03/05 05:07:50;;;;;;;4.67;3.90;;;;;;;;;;2082029;28;20596;-58
2021/03/05 05:08:50;;;;;;;5.23;3.93;;;;;;;;;;2078975;28;20204;-52
2021/03/05 05:09:51;;;;;;;7.33;3.87;;;;;;;;;;2074469;28;20166;-51
2021/03/05 05:10:52;;;;;;;6.57;3.63;;;;;;;;;;2073718;28;20181;-53
2021/03/05 05:11:52;;;;;;;3.93;3.50;;;;;;;;;;2071525;28;20438;-56
2021/03/05 05:12:53;;;;;;;4.53;3.50;;;;;;;;;;2071673;28;20196;-55
2021/03/05 05:13:53;;;;;;;4.63;3.87;;;;;;;;;;2065314;28;20240;-56
2021/03/05 05:14:53;;;;;;;5.90;3.37;;;;;;;;;;2072395;28;20196;-55
2021/03/05 05:15:54;;;;;;;4.80;4.00;;;;;;;;;;2081341;28;20212;-55
2021/03/05 05:16:54;;;;;;;4.97;3.43;;;;;;;;;;2079909;28;20180;-54
2021/03/05 05:17:55;;;;;;;5.80;3.53;;;;;;;;;;2068940;28;20795;-52
2021/03/05 05:18:55;;;;;;;5.53;3.70;;;;;;;;;;2088110;28;20592;-51
2021/03/05 05:19:55;;;;;;;3.50;3.20;;;;;;;;;;2073265;28;20188;-51
2021/03/05 05:20:55;;;;;;;3.70;3.17;;;;;;;;;;2087176;28;20182;-53
2021/03/05 05:21:56;;;;;;;7.97;3.80;;;;;;;;;;2089020;28;20175;-52
2021/03/05 05:22:56;;;;;;;4.23;3.83;;;;;;;;;;2083529;28;20626;-54
2021/03/05 05:23:56;;;;;;;5.33;3.00;;;;;;;;;;2088861;28;20203;-55
2021/03/05 05:24:57;;;;;;;5.73;3.80;;;;;;;;;;2087078;28;20735;-57
2021/03/05 05:25:57;;;;;;;8.40;4.00;;;;;;;;;;2083693;28;20196;-56
2021/03/05 05:26:57;;;;;;;7.80;4.60;;;;;;;;;;2087122;28;20257;-53
2021/03/05 05:27:58;;;;;;;6.17;4.10;;;;;;;;;;2081648;28;20183;-54
2021/03/05 05:28:58;;;;;;;4.10;3.70;;;;;;;;;;2075345;28;20200;-56
2021/03/05 05:29:59;;;;;;;6.33;3.77;;;;;;;;;;2088068;28;20160;-57
2021/03/05 05:30:59;;;;;;;4.57;3.37;;;;;;;;;;2079889;28;20235;-56
2021/03/05 05:31:59;;;;;;;4.13;3.50;;;;;;;;;;2088681;28;20271;-59
2021/03/05 05:32:59;;;;;;;4.53;4.07;;;;;;;;;;2068184;28;20173;-55
2021/03/05 05:34:00;;;;;;;5.27;4.10;;;;;;;;;;2073000;28;20267;-55
2021/03/05 05:35:00;;;;;;;8.43;4.10;;;;;;;;;;2084628;28;20230;-54
2021/03/05 05:36:00;;;;;;;6.27;4.00;;;;;;;;;;2087994;28;20195;-57
2021/03/05 05:37:01;;;;;;;8.37;4.13;;;;;;;;;;2074718;28;20173;-54
2021/03/05 05:38:01;;;;;;;5.07;3.63;;;;;;;;;;2072296;28;20173;-56
2021/03/05 05:39:02;;;;;;;5.30;4.03;;;;;;;;;;2078188;28;20185;-53
2021/03/05 05:40:03;;;;;;;7.93;3.73;;;;;;;;;;2086726;28;20206;-59
2021/03/05 05:41:03;;;;;;;5.20;4.13;;;;;;;;;;2082667;28;20199;-58
2021/03/05 05:42:05;;;;;;;7.03;4.20;;;;;;;;;;2080238;28;20176;-57
2021/03/05 05:43:06;;;;;;;6.37;3.60;;;;;;;;;;2069886;28;20231;-57
2021/03/05 05:44:07;;;;;;;7.77;4.00;;;;;;;;;;2083325;28;20514;-57
2021/03/05 05:45:07;;;;;;;8.53;3.90;;;;;;;;;;2081270;28;20184;-55
2021/03/05 05:46:09;;;;;;;4.73;3.90;;;;;;;;;;2083198;28;20189;-59
2021/03/05 05:47:13;;;;;;;5.40;4.07;;;;;;;;;;2074367;28;20572;-55
2021/03/05 05:48:13;;;;;;;6.57;4.07;;;;;;;;;;2079309;28;20513;-53
2021/03/05 05:49:15;;;;;;;6.20;5.03;;;;;;;;;;2083298;28;20449;-53
2021/03/05 05:50:15;;;;;;;8.60;3.90;;;;;;;;;;2085150;28;20167;-53
2021/03/05 05:51:22;;;;;;;4.67;4.17;;;;;;;;;;2077611;28;20513;-60
2021/03/05 05:52:25;;;;;;;8.77;3.83;;;;;;;;;;2087985;28;20179;-57
2021/03/05 05:53:30;;;;;;;5.20;3.97;;;;;;;;;;2089434;28;20400;-56
2021/03/05 05:54:31;;;;;;;6.33;4.43;;;;;;;;;;2087726;28;20478;-57
2021/03/05 05:55:32;;;;;;;5.00;3.70;;;;;;;;;;2084657;28;20438;-55
2021/03/05 05:56:32;;;;;;;7.53;4.33;;;;;;;;;;2081445;28;20180;-56
2021/03/05 05:57:34;;;;;;;5.37;3.70;;;;;;;;;;2079639;28;20223;-56
2021/03/05 05:58:34;;;;;;;5.03;4.10;;;;;;;;;;2066074;28;20260;-54
2021/03/05 05:59:34;;;;;;;5.17;4.27;;;;;;;;;;2082839;28;20428;-56
2021/03/05 06:00:35;;;;;;;4.37;3.97;;;;;;;;;;2081418;28;20187;-52
2021/03/05 06:01:35;;;;;;;4.47;3.90;;;;;;;;;;2085142;28;20250;-54
2021/03/05 06:02:36;;;;;;;4.33;3.80;;;;;;;;;;2083973;28;20175;-56
2021/03/05 06:03:37;;;;;;;4.47;3.77;;;;;;;;;;2071800;28;20165;-53
2021/03/05 06:04:38;;;;;;;4.07;3.73;;;;;;;;;;2072031;28;20177;-55
2021/03/05 06:05:38;;;;;;;8.23;4.30;;;;;;;;;;2076743;28;20788;-55
2021/03/05 06:06:38;;;;;;;6.60;4.70;;;;;;;;;;2070229;28;20639;-55
2021/03/05 06:07:41;;;;;;;8.87;4.30;;;;;;;;;;2065191;28;20776;-56
2021/03/05 06:08:41;;;;;;;5.80;4.17;;;;;;;;;;2081243;28;20171;-52